createdAt,value
2022-10-01T00:25:40.882Z,13.35
2022-10-01T02:05:39.600Z,13.35
2022-10-01T02:25:40.199Z,13.35
2022-10-01T02:45:39.950Z,13.35
2022-10-01T03:25:40.514Z,13.35
2022-10-01T03:45:40.655Z,13.35
2022-10-01T04:05:40.600Z,13.35
2022-10-01T04:25:40.445Z,13.35
2022-10-01T04:45:40.565Z,13.35
2022-10-01T05:05:39.774Z,13.35
2022-10-01T05:25:40.523Z,13.35
2022-10-01T05:45:40.552Z,13.35
2022-10-01T06:05:40.504Z,13.35
2022-10-01T06:25:40.339Z,13.35
2022-10-01T06:45:40.537Z,13.35
2022-10-01T07:05:40.430Z,13.35
2022-10-01T07:25:40.405Z,13.35
2022-10-01T07:45:40.429Z,13.35
2022-10-01T08:05:40.373Z,13.35
2022-10-01T08:25:40.330Z,13.35
2022-10-01T08:45:40.380Z,13.35
2022-10-01T09:05:40.290Z,13.35
2022-10-01T09:45:40.323Z,13.35
2022-10-01T10:05:40.219Z,13.35
2022-10-01T10:25:40.198Z,13.34
2022-10-01T10:45:39.645Z,13.35
2022-10-01T11:05:40.133Z,13.35
2022-10-01T11:25:40.103Z,13.35
2022-10-01T12:25:40.026Z,13.34
2022-10-01T12:45:40.005Z,13.32
2022-10-01T13:05:39.849Z,13.3
2022-10-01T13:45:39.962Z,13.29
2022-10-01T14:05:39.887Z,13.29
2022-10-01T14:25:39.853Z,13.29
2022-10-01T14:45:39.852Z,13.3
2022-10-01T15:05:39.797Z,13.3
2022-10-01T15:25:39.763Z,13.3
2022-10-01T15:45:39.776Z,13.31
2022-10-01T16:05:39.695Z,13.32
2022-10-01T16:25:39.673Z,13.32
2022-10-01T16:45:39.658Z,13.33
2022-10-01T17:05:39.657Z,13.33
2022-10-01T17:25:39.460Z,13.34
2022-10-01T17:45:39.477Z,13.34
2022-10-01T18:05:39.543Z,13.34
2022-10-01T18:25:39.522Z,13.34
2022-10-01T18:45:39.571Z,13.35
2022-10-01T19:05:38.960Z,13.35
2022-10-01T19:25:39.457Z,13.35
2022-10-01T19:45:39.432Z,13.35
2022-10-01T20:05:39.418Z,13.36
2022-10-01T20:45:39.385Z,13.37
2022-10-01T21:05:39.349Z,13.38
2022-10-01T21:45:38.585Z,13.39
2022-10-01T22:05:39.290Z,13.4
2022-10-01T23:05:38.725Z,13.41
2022-10-01T23:25:39.217Z,13.42
2022-10-01T23:45:38.595Z,13.42
